Time;durP1;ratioP1;P1;durP2;ratioP2;P2;SDS_P1;SDS_P2;PMS_P1;PMS_P2;Temp;Humidity;BMP_temperature;BMP_pressure;BME280_temperature;BME280_humidity;BME280_pressure;Samples;Min_cycle;Max_cycle;Signal;HPM_P1;HPM_P2
2023/06/16 00:00:12;;;;;;;7.90;4.03;;;;;;;-145.41;100.00;58600.66;5007491;28;20044;-73
2023/06/16 00:02:43;;;;;;;6.63;4.05;;;;;;;-145.41;100.00;58600.66;5029527;28;20037;-73
2023/06/16 00:05:12;;;;;;;7.13;4.40;;;;;;;-145.41;100.00;58600.66;5023724;28;20045;-73
2023/06/16 00:07:39;;;;;;;6.55;3.92;;;;;;;-145.41;100.00;58600.66;5026374;28;20424;-73
2023/06/16 00:10:06;;;;;;;6.70;3.95;;;;;;;-145.41;100.00;58600.66;5028708;28;20116;-73
2023/06/16 00:12:33;;;;;;;5.03;3.50;;;;;;;-145.41;100.00;58600.66;5025842;28;20136;-73
2023/06/16 00:14:58;;;;;;;5.03;3.38;;;;;;;-145.41;100.00;58600.66;5026915;28;20033;-74
2023/06/16 00:17:23;;;;;;;6.38;3.92;;;;;;;-145.41;100.00;58600.66;5027386;28;20408;-74
2023/06/16 00:19:50;;;;;;;5.25;3.50;;;;;;;-145.41;100.00;58600.66;5028087;28;20026;-73
2023/06/16 00:22:17;;;;;;;7.20;3.60;;;;;;;-145.41;100.00;58600.66;5024445;28;20120;-73
2023/06/16 00:24:44;;;;;;;5.35;3.55;;;;;;;-145.41;100.00;58600.66;5023562;28;20133;-73
2023/06/16 00:27:09;;;;;;;6.35;3.97;;;;;;;-145.41;100.00;58600.66;5028301;28;20400;-73
2023/06/16 00:29:36;;;;;;;6.32;3.65;;;;;;;-145.41;100.00;58600.66;5012850;28;20063;-74
2023/06/16 00:32:02;;;;;;;5.03;3.80;;;;;;;-145.41;100.00;58600.66;5016373;28;20033;-74
2023/06/16 00:34:27;;;;;;;5.03;3.75;;;;;;;-145.41;100.00;58600.66;5006273;28;20491;-74
2023/06/16 00:36:53;;;;;;;6.35;3.63;;;;;;;-145.41;100.00;58600.66;4997241;28;20033;-73
2023/06/16 00:39:18;;;;;;;5.63;3.55;;;;;;;-145.41;100.00;58600.66;5005982;28;20064;-73
2023/06/16 00:41:43;;;;;;;7.93;4.40;;;;;;;-145.41;100.00;58600.66;5029715;28;20029;-73
2023/06/16 00:44:09;;;;;;;5.90;3.80;;;;;;;-145.41;100.00;58600.66;5006427;28;20033;-74
2023/06/16 00:46:36;;;;;;;6.30;4.10;;;;;;;-145.41;100.00;58600.66;5027497;28;20062;-74
2023/06/16 00:49:02;;;;;;;8.63;4.22;;;;;;;-145.41;100.00;58600.66;5010279;28;20042;-73
2023/06/16 00:51:30;;;;;;;7.22;3.95;;;;;;;-145.41;100.00;58600.66;5007133;28;20527;-74
2023/06/16 00:53:57;;;;;;;6.95;4.07;;;;;;;-145.41;100.00;58600.66;5026326;28;20074;-74
2023/06/16 00:56:23;;;;;;;6.85;3.97;;;;;;;-145.41;100.00;58600.66;5030100;28;20622;-74
2023/06/16 00:58:51;;;;;;;5.75;3.65;;;;;;;-145.41;100.00;58600.66;5024430;28;20035;-74
2023/06/16 01:01:17;;;;;;;6.57;4.25;;;;;;;-145.41;100.00;58600.66;5003945;28;20072;-74
2023/06/16 01:03:44;;;;;;;8.30;4.70;;;;;;;-145.41;100.00;58600.66;5023092;28;20065;-74
2023/06/16 01:06:37;;;;;;;6.05;3.97;;;;;;;-145.41;100.00;58600.66;5024929;28;20053;-74
2023/06/16 01:09:20;;;;;;;7.60;4.50;;;;;;;-145.41;100.00;58600.66;4964296;28;20080;-73
2023/06/16 01:11:55;;;;;;;7.18;4.15;;;;;;;-145.41;100.00;58600.66;5023130;28;20523;-74
2023/06/16 01:15:00;;;;;;;5.65;4.15;;;;;;;-145.41;100.00;58600.66;5025644;28;20041;-74
2023/06/16 01:17:28;;;;;;;6.13;4.25;;;;;;;-145.41;100.00;58600.66;5024383;28;20455;-74
2023/06/16 01:20:12;;;;;;;7.75;4.40;;;;;;;-145.41;100.00;58600.66;5025409;28;20033;-74
2023/06/16 01:22:59;;;;;;;8.10;3.90;;;;;;;-145.41;100.00;58600.66;5010508;28;20029;-74
2023/06/16 01:25:29;;;;;;;7.55;4.60;;;;;;;-145.41;100.00;58600.66;5025092;28;20052;-74
2023/06/16 01:27:57;;;;;;;7.65;3.78;;;;;;;-145.41;100.00;58600.66;5012794;28;20381;-74
2023/06/16 01:30:25;;;;;;;6.80;3.97;;;;;;;-145.41;100.00;58600.66;5004418;28;20064;-73
2023/06/16 01:32:56;;;;;;;6.90;4.32;;;;;;;-145.41;100.00;58600.66;5026059;28;20034;-74
2023/06/16 01:35:23;;;;;;;6.35;4.25;;;;;;;-145.41;100.00;58600.66;5012891;28;20026;-74
2023/06/16 01:37:53;;;;;;;9.00;4.90;;;;;;;-145.41;100.00;58600.66;5032528;28;20040;-74
2023/06/16 01:40:19;;;;;;;7.75;4.80;;;;;;;-145.41;100.00;58600.66;5013923;28;20037;-74
2023/06/16 01:42:48;;;;;;;5.90;4.07;;;;;;;-145.41;100.00;58600.66;5029869;28;20030;-74
2023/06/16 01:45:20;;;;;;;5.90;3.95;;;;;;;-145.41;100.00;58600.66;5027661;28;20040;-74
2023/06/16 01:47:46;;;;;;;7.55;4.28;;;;;;;-145.41;100.00;58600.66;5016096;28;20116;-74
2023/06/16 01:50:12;;;;;;;10.23;4.70;;;;;;;-145.41;100.00;58600.66;5029873;28;20041;-74
2023/06/16 01:52:38;;;;;;;5.75;4.60;;;;;;;-145.41;100.00;58600.66;5016156;28;20033;-74
2023/06/16 01:55:03;;;;;;;7.20;4.63;;;;;;;-145.41;100.00;58600.66;5012585;28;20040;-74
2023/06/16 01:57:29;;;;;;;7.10;4.30;;;;;;;-145.41;100.00;58600.66;5031589;28;20041;-73
2023/06/16 02:00:01;;;;;;;5.10;3.58;;;;;;;-145.41;100.00;58600.66;5015037;28;20045;-74
2023/06/16 02:02:29;;;;;;;5.57;3.97;;;;;;;-145.41;100.00;58600.66;5012768;28;20025;-74
2023/06/16 02:04:55;;;;;;;6.72;4.32;;;;;;;-145.41;100.00;58600.66;5015208;28;20040;-74
2023/06/16 02:07:30;;;;;;;13.93;7.55;;;;;;;-145.41;100.00;58600.66;5016057;28;20419;-73
2023/06/16 02:09:58;;;;;;;7.40;5.45;;;;;;;-145.41;100.00;58600.66;5014815;28;20041;-73
2023/06/16 02:12:24;;;;;;;7.10;5.18;;;;;;;-145.41;100.00;58600.66;5015350;28;20512;-73
2023/06/16 02:14:50;;;;;;;9.48;7.35;;;;;;;-145.41;100.00;58600.66;5012086;28;20029;-74
2023/06/16 02:17:15;;;;;;;8.00;5.43;;;;;;;-145.41;100.00;58600.66;5030694;28;20048;-74
2023/06/16 02:19:41;;;;;;;8.85;5.75;;;;;;;-145.41;100.00;58600.66;4998417;28;20034;-74
2023/06/16 02:22:06;;;;;;;6.95;5.53;;;;;;;-145.41;100.00;58600.66;5033486;28;20052;-74
2023/06/16 02:24:32;;;;;;;11.38;6.78;;;;;;;-145.41;100.00;58600.66;5014435;28;20033;-73
2023/06/16 02:26:57;;;;;;;7.38;4.95;;;;;;;-145.41;100.00;58600.66;5015226;28;20033;-73
2023/06/16 02:29:22;;;;;;;7.38;4.55;;;;;;;-145.41;100.00;58600.66;5014844;28;20403;-74
2023/06/16 02:31:49;;;;;;;8.30;4.80;;;;;;;-145.41;100.00;58600.66;5032765;28;20061;-73
2023/06/16 02:34:16;;;;;;;8.05;5.20;;;;;;;-145.41;100.00;58600.66;5018815;28;20103;-74
2023/06/16 02:36:41;;;;;;;7.57;5.00;;;;;;;-145.41;100.00;58600.66;5030955;28;20112;-74
2023/06/16 02:39:07;;;;;;;7.45;5.55;;;;;;;-145.41;100.00;58600.66;5014420;28;20212;-73
2023/06/16 02:41:33;;;;;;;7.20;5.22;;;;;;;-145.41;100.00;58600.66;5014971;28;20033;-74
2023/06/16 02:43:59;;;;;;;6.65;4.50;;;;;;;-145.41;100.00;58600.66;5031915;28;20033;-74
2023/06/16 02:46:25;;;;;;;6.00;4.55;;;;;;;-145.41;100.00;58600.66;5032911;28;20030;-74
2023/06/16 02:48:50;;;;;;;6.88;4.63;;;;;;;-145.41;100.00;58600.66;5032079;28;20510;-73
2023/06/16 02:51:16;;;;;;;9.90;4.95;;;;;;;-145.41;100.00;58600.66;5015344;28;20032;-73
2023/06/16 02:53:45;;;;;;;7.93;4.60;;;;;;;-145.41;100.00;58600.66;5032658;28;20037;-74
2023/06/16 02:56:11;;;;;;;7.43;5.00;;;;;;;-145.41;100.00;58600.66;5015125;28;20121;-74
2023/06/16 02:58:38;;;;;;;6.43;4.57;;;;;;;-145.41;100.00;58600.66;5014912;28;20022;-74
2023/06/16 03:01:04;;;;;;;6.93;4.68;;;;;;;-145.41;100.00;58600.66;5028664;28;20057;-73
2023/06/16 03:03:36;;;;;;;7.25;5.20;;;;;;;-145.41;100.00;58600.66;5014941;28;20403;-73
2023/06/16 03:06:19;;;;;;;7.63;5.50;;;;;;;-145.41;100.00;58600.66;5014656;28;20091;-74
2023/06/16 03:08:45;;;;;;;9.50;5.57;;;;;;;-145.41;100.00;58600.66;5032019;28;20040;-74
2023/06/16 03:11:11;;;;;;;7.60;5.35;;;;;;;-145.41;100.00;58600.66;5013922;28;20033;-73
2023/06/16 03:13:45;;;;;;;11.90;5.97;;;;;;;-145.41;100.00;58600.66;5011832;28;20160;-73
2023/06/16 03:16:12;;;;;;;7.53;6.13;;;;;;;-145.41;100.00;58600.66;5008209;28;20121;-74
2023/06/16 03:18:38;;;;;;;7.55;5.72;;;;;;;-145.41;100.00;58600.66;5013743;28;20079;-74
2023/06/16 03:21:03;;;;;;;6.57;5.07;;;;;;;-145.41;100.00;58600.66;5013902;28;20025;-73
2023/06/16 03:23:34;;;;;;;7.30;5.03;;;;;;;-145.41;100.00;58600.66;5013407;28;20112;-74
2023/06/16 03:25:59;;;;;;;9.30;5.85;;;;;;;-145.41;100.00;58600.66;5014597;28;20445;-73
2023/06/16 03:28:45;;;;;;;8.05;5.32;;;;;;;-145.41;100.00;58600.66;5029607;28;20045;-74
2023/06/16 03:31:10;;;;;;;8.27;5.20;;;;;;;-145.41;100.00;58600.66;5012429;28;20125;-74
2023/06/16 03:33:43;;;;;;;9.15;5.20;;;;;;;-145.41;100.00;58600.66;5014374;28;20167;-73
2023/06/16 03:36:09;;;;;;;7.47;5.40;;;;;;;-145.41;100.00;58600.66;5014189;28;20458;-74
2023/06/16 03:38:40;;;;;;;8.60;5.15;;;;;;;-145.41;100.00;58600.66;5008797;28;20022;-73
2023/06/16 03:41:06;;;;;;;9.02;4.95;;;;;;;-145.41;100.00;58600.66;5016493;28;20042;-74
2023/06/16 03:43:31;;;;;;;8.55;5.07;;;;;;;-145.41;100.00;58600.66;5014143;28;20044;-74
2023/06/16 03:45:57;;;;;;;8.07;4.65;;;;;;;-145.41;100.00;58600.66;5013557;28;20033;-73
2023/06/16 03:48:23;;;;;;;8.73;5.13;;;;;;;-145.41;100.00;58600.66;5013720;28;20565;-74
2023/06/16 03:50:53;;;;;;;7.82;4.82;;;;;;;-145.41;100.00;58600.66;5012792;28;20033;-74
2023/06/16 03:53:20;;;;;;;8.00;5.28;;;;;;;-145.41;100.00;58600.66;5010783;28;20025;-74
2023/06/16 03:55:47;;;;;;;12.88;5.72;;;;;;;-145.41;100.00;58600.66;5014753;28;20026;-74
2023/06/16 03:58:15;;;;;;;9.48;5.05;;;;;;;-145.41;100.00;58600.66;5013343;28;20033;-74
2023/06/16 04:00:41;;;;;;;9.77;4.90;;;;;;;-145.41;100.00;58600.66;5010506;28;20136;-75
2023/06/16 04:03:07;;;;;;;9.73;5.22;;;;;;;-145.41;100.00;58600.66;5013564;28;20033;-74
2023/06/16 04:05:33;;;;;;;15.38;7.18;;;;;;;-145.41;100.00;58600.66;5014340;28;20030;-74
2023/06/16 04:08:00;;;;;;;9.80;6.50;;;;;;;-145.41;100.00;58600.66;5013442;28;20029;-75
2023/06/16 04:10:26;;;;;;;9.10;6.70;;;;;;;-145.41;100.00;58600.66;5011021;28;20032;-74
2023/06/16 04:12:52;;;;;;;9.77;6.35;;;;;;;-145.41;100.00;58600.66;5012226;28;20041;-74
2023/06/16 04:15:18;;;;;;;9.23;6.63;;;;;;;-145.41;100.00;58600.66;5028194;28;20128;-74
2023/06/16 04:17:44;;;;;;;15.10;7.40;;;;;;;-145.41;100.00;58600.66;5013346;28;20365;-74
2023/06/16 04:20:11;;;;;;;10.85;6.72;;;;;;;-145.41;100.00;58600.66;5030707;28;20036;-74
2023/06/16 04:22:38;;;;;;;21.70;17.88;;;;;;;-145.41;100.00;58600.66;5012079;28;20033;-74
2023/06/16 04:25:05;;;;;;;40.47;27.20;;;;;;;-145.41;100.00;58600.66;5025692;28;20037;-74
2023/06/16 04:27:32;;;;;;;14.52;10.77;;;;;;;-145.41;100.00;58600.66;5000695;28;20041;-74
2023/06/16 04:29:58;;;;;;;13.25;8.45;;;;;;;-145.41;100.00;58600.66;5012032;28;20049;-73
2023/06/16 04:32:23;;;;;;;10.23;6.00;;;;;;;-145.41;100.00;58600.66;5012213;28;20068;-74
2023/06/16 04:34:51;;;;;;;10.57;5.88;;;;;;;-145.41;100.00;58600.66;5009652;28;20532;-73
2023/06/16 04:37:18;;;;;;;9.85;6.47;;;;;;;-145.41;100.00;58600.66;5008887;28;20037;-74
2023/06/16 04:39:43;;;;;;;7.80;5.22;;;;;;;-145.41;100.00;58600.66;4991867;28;20042;-74
2023/06/16 04:42:13;;;;;;;10.15;5.93;;;;;;;-145.41;100.00;58600.66;5006913;28;20025;-73
2023/06/16 04:44:40;;;;;;;9.68;5.82;;;;;;;-145.41;100.00;58600.66;5014822;28;20048;-73
2023/06/16 04:47:08;;;;;;;13.45;8.35;;;;;;;-145.41;100.00;58600.66;5012803;28;20037;-73
2023/06/16 04:49:33;;;;;;;13.15;7.10;;;;;;;-145.41;100.00;58600.66;5012440;28;20026;-73
2023/06/16 04:51:59;;;;;;;7.45;5.50;;;;;;;-145.41;100.00;58600.66;5021573;28;20400;-73
2023/06/16 04:54:24;;;;;;;10.13;6.10;;;;;;;-145.41;100.00;58600.66;5012315;28;20466;-73
2023/06/16 04:56:50;;;;;;;10.15;6.00;;;;;;;-145.41;100.00;58600.66;5012284;28;20103;-74
2023/06/16 04:59:15;;;;;;;8.50;6.07;;;;;;;-145.41;100.00;58600.66;5011171;28;20040;-74
2023/06/16 05:01:40;;;;;;;9.27;5.97;;;;;;;-145.41;100.00;58600.66;5012208;28;20044;-74
2023/06/16 05:04:06;;;;;;;11.98;8.15;;;;;;;-145.41;100.00;58600.66;5009351;28;20038;-74
2023/06/16 05:06:37;;;;;;;8.48;5.85;;;;;;;-145.41;100.00;58600.66;5010453;28;20026;-74
2023/06/16 05:09:03;;;;;;;7.65;5.35;;;;;;;-145.41;100.00;58600.66;5012294;28;20407;-74
2023/06/16 05:11:29;;;;;;;10.30;6.20;;;;;;;-145.41;100.00;58600.66;5016333;28;20033;-74
2023/06/16 05:13:55;;;;;;;9.13;5.70;;;;;;;-145.41;100.00;58600.66;5013023;28;20483;-74
2023/06/16 05:16:20;;;;;;;7.88;6.13;;;;;;;-145.41;100.00;58600.66;5033756;28;20315;-74
2023/06/16 05:18:45;;;;;;;7.93;6.00;;;;;;;-145.41;100.00;58600.66;5018846;28;20025;-73
2023/06/16 05:21:12;;;;;;;10.57;5.82;;;;;;;-145.41;100.00;58600.66;5015838;28;20033;-73
2023/06/16 05:23:37;;;;;;;6.40;4.95;;;;;;;-145.41;100.00;58600.66;5013552;28;20037;-73
2023/06/16 05:26:03;;;;;;;7.25;5.47;;;;;;;-145.41;100.00;58600.66;5016024;28;20033;-74
2023/06/16 05:28:28;;;;;;;7.18;4.65;;;;;;;-145.41;100.00;58600.66;5032823;28;20025;-73
2023/06/16 05:30:54;;;;;;;6.78;4.43;;;;;;;-145.41;100.00;58600.66;5014929;28;20108;-73
2023/06/16 05:33:20;;;;;;;9.45;5.03;;;;;;;-145.41;100.00;58600.66;5014816;28;20029;-74
2023/06/16 05:35:45;;;;;;;9.32;5.22;;;;;;;-145.41;100.00;58600.66;5017853;28;20395;-74
2023/06/16 05:38:11;;;;;;;10.02;5.75;;;;;;;-145.41;100.00;58600.66;5016956;28;20516;-73
2023/06/16 05:40:37;;;;;;;7.72;5.22;;;;;;;-145.41;100.00;58600.66;5014935;28;20112;-74
2023/06/16 05:43:02;;;;;;;8.35;4.80;;;;;;;-145.41;100.00;58600.66;5034093;28;20025;-73
2023/06/16 05:45:28;;;;;;;11.18;5.10;;;;;;;-145.41;100.00;58600.66;5016335;28;20033;-73
2023/06/16 05:47:53;;;;;;;7.97;4.80;;;;;;;-145.41;100.00;58600.66;5014542;28;20034;-74
2023/06/16 05:50:19;;;;;;;9.13;6.78;;;;;;;-145.41;100.00;58600.66;5033584;28;20640;-74
2023/06/16 05:52:44;;;;;;;9.50;5.10;;;;;;;-145.41;100.00;58600.66;5014708;28;20687;-73
2023/06/16 05:55:10;;;;;;;8.68;5.00;;;;;;;-145.41;100.00;58600.66;5015772;28;20029;-74
2023/06/16 05:57:42;;;;;;;8.90;4.82;;;;;;;-145.41;100.00;58600.66;5017354;28;20042;-74
2023/06/16 06:00:08;;;;;;;5.97;4.65;;;;;;;-145.41;100.00;58600.66;5015537;28;20025;-74
2023/06/16 06:02:42;;;;;;;8.25;5.20;;;;;;;-145.41;100.00;58600.66;5032446;28;20041;-73
2023/06/16 06:05:20;;;;;;;9.13;4.40;;;;;;;-145.41;100.00;58600.66;5012994;28;20033;-73
2023/06/16 06:07:45;;;;;;;6.50;4.35;;;;;;;-145.41;100.00;58600.66;5033487;28;20569;-74
2023/06/16 06:10:12;;;;;;;6.40;4.13;;;;;;;-145.41;100.00;58600.66;5013989;28;20140;-73
2023/06/16 06:12:37;;;;;;;9.88;4.68;;;;;;;-145.41;100.00;58600.66;5033773;28;20045;-74
2023/06/16 06:15:03;;;;;;;6.60;4.78;;;;;;;-145.41;100.00;58600.66;5015880;28;20045;-73
2023/06/16 06:17:29;;;;;;;7.03;4.90;;;;;;;-145.41;100.00;58600.66;5015367;28;20026;-73
2023/06/16 06:19:54;;;;;;;7.47;5.43;;;;;;;-145.41;100.00;58600.66;5014479;28;20116;-74
2023/06/16 06:22:20;;;;;;;7.18;4.75;;;;;;;-145.41;100.00;58600.66;5014842;28;20041;-73
2023/06/16 06:24:45;;;;;;;8.98;5.18;;;;;;;-145.41;100.00;58600.66;5030297;28;20025;-74
2023/06/16 06:27:12;;;;;;;7.78;4.88;;;;;;;-145.41;100.00;58600.66;5014745;28;20030;-74
2023/06/16 06:29:37;;;;;;;8.52;4.72;;;;;;;-145.41;100.00;58600.66;5012916;28;20045;-74
2023/06/16 06:32:07;;;;;;;11.52;5.07;;;;;;;-145.41;100.00;58600.66;5014969;28;20041;-74
2023/06/16 06:34:35;;;;;;;;;;;;;;;-145.41;100.00;58600.66;5015957;28;20025;-74
2023/06/16 06:37:01;;;;;;;6.50;4.57;;;;;;;-145.41;100.00;58600.66;5011986;28;20419;-74
2023/06/16 06:39:26;;;;;;;7.95;5.32;;;;;;;-145.41;100.00;58600.66;5029764;28;20060;-74
2023/06/16 06:41:52;;;;;;;5.60;4.45;;;;;;;-145.41;100.00;58600.66;5015212;28;20034;-74
2023/06/16 06:44:22;;;;;;;8.00;5.07;;;;;;;-145.41;100.00;58600.66;5015221;28;20025;-74
2023/06/16 06:46:49;;;;;;;9.25;5.97;;;;;;;-145.41;100.00;58600.66;5014425;28;20032;-74
2023/06/16 06:49:16;;;;;;;6.32;4.45;;;;;;;-145.41;100.00;58600.66;5014513;28;20033;-75
2023/06/16 06:51:42;;;;;;;6.80;4.70;;;;;;;-145.41;100.00;58600.66;5011266;28;20125;-74
2023/06/16 06:54:07;;;;;;;10.20;4.95;;;;;;;-145.41;100.00;58600.66;5032814;28;20033;-74
2023/06/16 06:56:33;;;;;;;6.60;4.80;;;;;;;-145.41;100.00;58600.66;5032830;28;20036;-74
2023/06/16 06:58:58;;;;;;;7.28;4.45;;;;;;;-145.41;100.00;58600.66;5028536;28;20106;-74
2023/06/16 07:01:23;;;;;;;8.98;4.70;;;;;;;-145.41;100.00;58600.66;5032050;28;20119;-74
2023/06/16 07:03:49;;;;;;;9.18;5.13;;;;;;;-145.41;100.00;58600.66;5014310;28;20060;-74
2023/06/16 07:06:14;;;;;;;6.47;4.00;;;;;;;-145.41;100.00;58600.66;5032471;28;20026;-74
2023/06/16 07:08:40;;;;;;;6.03;4.10;;;;;;;-145.41;100.00;58600.66;5030356;28;20401;-73
2023/06/16 07:11:05;;;;;;;6.10;4.30;;;;;;;-145.41;100.00;58600.66;5026561;28;20108;-74
2023/06/16 07:13:31;;;;;;;6.88;3.95;;;;;;;-145.41;100.00;58600.66;5031979;28;20044;-74
2023/06/16 07:15:56;;;;;;;6.10;4.10;;;;;;;-145.41;100.00;58600.66;5030791;28;20116;-74
2023/06/16 07:18:21;;;;;;;7.88;4.22;;;;;;;-145.41;100.00;58600.66;5026758;28;20488;-73
2023/06/16 07:20:47;;;;;;;5.63;4.00;;;;;;;-145.41;100.00;58600.66;5031475;28;20108;-74
2023/06/16 07:23:12;;;;;;;5.63;3.95;;;;;;;-145.41;100.00;58600.66;5027056;28;20058;-74
2023/06/16 07:25:38;;;;;;;4.97;3.58;;;;;;;-145.41;100.00;58600.66;5032525;28;20183;-74
2023/06/16 07:28:04;;;;;;;6.15;4.55;;;;;;;-145.41;100.00;58600.66;5031877;28;20032;-74
2023/06/16 07:30:29;;;;;;;6.43;3.80;;;;;;;-145.41;100.00;58600.66;5028565;28;20065;-74
2023/06/16 07:32:55;;;;;;;5.88;4.10;;;;;;;-145.41;100.00;58600.66;5032051;28;20558;-74
2023/06/16 07:35:21;;;;;;;6.68;3.70;;;;;;;-145.41;100.00;58600.66;5032194;28;20036;-74
2023/06/16 07:37:46;;;;;;;6.80;4.28;;;;;;;-145.41;100.00;58600.66;5031631;28;20021;-74
2023/06/16 07:40:13;;;;;;;6.60;3.92;;;;;;;-145.41;100.00;58600.66;5031423;28;20488;-73
2023/06/16 07:42:41;;;;;;;6.35;3.85;;;;;;;-145.41;100.00;58600.66;5022359;28;20400;-74
2023/06/16 07:45:06;;;;;;;6.50;3.72;;;;;;;-145.41;100.00;58600.66;5028285;28;20033;-74
2023/06/16 07:47:31;;;;;;;7.72;4.25;;;;;;;-145.41;100.00;58600.66;5031693;28;20047;-74
2023/06/16 07:49:57;;;;;;;5.18;3.58;;;;;;;-145.41;100.00;58600.66;5030532;28;20028;-74
2023/06/16 07:52:22;;;;;;;5.22;3.83;;;;;;;-145.41;100.00;58600.66;5031307;28;20037;-74
2023/06/16 07:54:47;;;;;;;5.22;3.60;;;;;;;-145.41;100.00;58600.66;5028956;28;20044;-74
2023/06/16 07:57:13;;;;;;;5.97;4.13;;;;;;;-145.41;100.00;58600.66;5013989;28;20034;-73
2023/06/16 07:59:38;;;;;;;6.47;4.47;;;;;;;-145.41;100.00;58600.66;5010996;28;20037;-74
2023/06/16 08:02:04;;;;;;;6.22;4.50;;;;;;;-145.41;100.00;58600.66;5027890;28;20033;-74
2023/06/16 08:04:29;;;;;;;8.75;4.30;;;;;;;-145.41;100.00;58600.66;5030395;28;20036;-74
2023/06/16 08:06:58;;;;;;;6.47;4.63;;;;;;;-145.41;100.00;58600.66;5013765;28;20042;-74
2023/06/16 08:09:23;;;;;;;6.45;4.63;;;;;;;-145.41;100.00;58600.66;5012981;28;20033;-74
2023/06/16 08:11:49;;;;;;;7.28;4.85;;;;;;;-145.41;100.00;58600.66;5031400;28;20044;-73
2023/06/16 08:14:15;;;;;;;9.18;4.88;;;;;;;-145.41;100.00;58600.66;5029679;28;20037;-74
2023/06/16 08:16:40;;;;;;;6.32;5.03;;;;;;;-145.41;100.00;58600.66;5027813;28;20037;-74
2023/06/16 08:19:06;;;;;;;8.32;5.30;;;;;;;-145.41;100.00;58600.66;5012684;28;20037;-74
2023/06/16 08:21:32;;;;;;;8.40;5.25;;;;;;;-145.41;100.00;58600.66;5013721;28;20048;-74
2023/06/16 08:23:57;;;;;;;7.95;5.50;;;;;;;-145.41;100.00;58600.66;5029244;28;20029;-73
2023/06/16 08:26:22;;;;;;;8.38;5.63;;;;;;;-145.41;100.00;58600.66;5031136;28;20451;-74
2023/06/16 08:28:48;;;;;;;7.65;5.20;;;;;;;-145.41;100.00;58600.66;5030041;28;20041;-74
2023/06/16 08:31:13;;;;;;;8.85;5.07;;;;;;;-145.41;100.00;58600.66;5013058;28;20442;-74
2023/06/16 08:33:38;;;;;;;6.32;5.20;;;;;;;-145.41;100.00;58600.66;5013428;28;20746;-73
2023/06/16 08:36:04;;;;;;;6.90;5.10;;;;;;;-145.41;100.00;58600.66;5030201;28;20040;-74
2023/06/16 08:38:31;;;;;;;8.32;4.95;;;;;;;-145.41;100.00;58600.66;5030667;28;20108;-74
2023/06/16 08:40:57;;;;;;;6.25;4.50;;;;;;;-145.41;100.00;58600.66;5011751;28;20037;-74
2023/06/16 08:43:23;;;;;;;7.18;5.40;;;;;;;-145.41;100.00;58600.66;5030758;28;20038;-74
2023/06/16 08:45:50;;;;;;;6.97;5.13;;;;;;;-145.41;100.00;58600.66;5013174;28;20086;-74
2023/06/16 08:48:16;;;;;;;7.82;5.75;;;;;;;-145.41;100.00;58600.66;5030544;28;20060;-74
2023/06/16 08:50:41;;;;;;;7.20;5.22;;;;;;;-145.41;100.00;58600.66;5029447;28;20053;-74
2023/06/16 08:53:10;;;;;;;6.00;4.07;;;;;;;-145.41;100.00;58600.66;5030331;28;20036;-73
2023/06/16 08:55:39;;;;;;;6.97;4.55;;;;;;;-145.41;100.00;58600.66;5029171;28;20488;-74
2023/06/16 08:58:07;;;;;;;8.88;5.10;;;;;;;-145.41;100.00;58600.66;5009556;28;20103;-74
2023/06/16 09:00:33;;;;;;;8.25;5.05;;;;;;;-145.41;100.00;58600.66;5027366;28;20163;-74
2023/06/16 09:02:59;;;;;;;7.40;5.00;;;;;;;-145.41;100.00;58600.66;5030141;28;20040;-74
2023/06/16 09:05:25;;;;;;;9.05;5.50;;;;;;;-145.41;100.00;58600.66;5030560;28;20041;-73
2023/06/16 09:07:51;;;;;;;7.80;4.95;;;;;;;-145.41;100.00;58600.66;5030205;28;20183;-73
2023/06/16 09:10:16;;;;;;;8.82;5.10;;;;;;;-145.41;100.00;58600.66;5029817;28;20145;-74
2023/06/16 09:12:42;;;;;;;8.23;5.10;;;;;;;-145.41;100.00;58600.66;5028532;28;20034;-74
2023/06/16 09:15:10;;;;;;;6.95;4.95;;;;;;;-145.41;100.00;58600.66;5030216;28;20037;-74
2023/06/16 09:17:37;;;;;;;6.63;4.30;;;;;;;-145.41;100.00;58600.66;5029807;28;20519;-74
2023/06/16 09:20:06;;;;;;;6.50;4.22;;;;;;;-145.41;100.00;58600.66;5029432;28;20037;-74
2023/06/16 09:22:32;;;;;;;4.63;3.58;;;;;;;-145.41;100.00;58600.66;4997163;28;20079;-74
2023/06/16 09:25:07;;;;;;;6.80;3.78;;;;;;;-145.41;100.00;58600.66;5030534;28;20068;-74
2023/06/16 09:27:46;;;;;;;4.53;3.13;;;;;;;-145.41;100.00;58600.66;5009010;28;20048;-74
2023/06/16 09:30:14;;;;;;;6.88;2.90;;;;;;;-145.41;100.00;58600.66;5028755;28;20126;-73
2023/06/16 09:32:40;;;;;;;5.00;3.33;;;;;;;-145.41;100.00;58600.66;5029720;28;20038;-73
2023/06/16 09:35:17;;;;;;;4.97;2.97;;;;;;;-145.41;100.00;58600.66;5030524;28;20396;-74
2023/06/16 09:37:44;;;;;;;4.85;3.20;;;;;;;-145.41;100.00;58600.66;5051303;22;20045;-79
2023/06/16 09:40:10;;;;;;;5.43;3.60;;;;;;;-145.41;100.00;58600.66;5028793;28;20057;-79
2023/06/16 09:42:37;;;;;;;4.63;3.60;;;;;;;-145.41;100.00;58600.66;5029506;28;20551;-79
2023/06/16 09:45:08;;;;;;;5.57;3.30;;;;;;;-145.41;100.00;58600.66;5028760;28;20044;-79
2023/06/16 09:47:37;;;;;;;4.70;3.40;;;;;;;-145.41;100.00;58600.66;5027818;28;20594;-79
2023/06/16 09:50:05;;;;;;;6.63;3.75;;;;;;;-145.41;100.00;58600.66;5028804;28;20040;-79
2023/06/16 09:52:32;;;;;;;5.53;3.60;;;;;;;-145.41;100.00;58600.66;5029956;28;20045;-79
2023/06/16 09:54:59;;;;;;;5.25;3.88;;;;;;;-145.41;100.00;58600.66;5031768;28;20040;-79
2023/06/16 09:57:24;;;;;;;6.65;4.50;;;;;;;-145.41;100.00;58600.66;5032476;28;20041;-79
2023/06/16 09:59:49;;;;;;;6.13;4.20;;;;;;;-145.41;100.00;58600.66;5032348;28;20037;-79
2023/06/16 10:02:16;;;;;;;7.88;4.53;;;;;;;-145.41;100.00;58600.66;5015057;28;20037;-79
2023/06/16 10:04:42;;;;;;;6.63;4.78;;;;;;;-145.41;100.00;58600.66;5032807;28;20450;-79
2023/06/16 10:07:09;;;;;;;6.20;3.92;;;;;;;-145.41;100.00;58600.66;5032314;28;20393;-79
2023/06/16 10:09:44;;;;;;;7.97;4.20;;;;;;;-145.41;100.00;58600.66;5031890;28;20029;-80
2023/06/16 10:12:14;;;;;;;6.97;4.10;;;;;;;-145.41;100.00;58600.66;5031421;28;20112;-79
2023/06/16 10:14:41;;;;;;;4.47;3.67;;;;;;;-145.41;100.00;58600.66;5033727;28;20120;-79
2023/06/16 10:17:10;;;;;;;5.63;3.83;;;;;;;-145.41;100.00;58600.66;5015026;28;20487;-79
2023/06/16 10:19:42;;;;;;;6.75;4.10;;;;;;;-145.41;100.00;58600.66;5030812;28;20022;-80
2023/06/16 10:22:08;;;;;;;5.10;3.58;;;;;;;-145.41;100.00;58600.66;5034900;28;20037;-80
2023/06/16 10:24:36;;;;;;;5.97;3.90;;;;;;;-145.41;100.00;58600.66;5033554;28;20060;-79
2023/06/16 10:27:02;;;;;;;5.80;4.22;;;;;;;-145.41;100.00;58600.66;5026022;28;20041;-79
2023/06/16 10:29:28;;;;;;;4.40;3.42;;;;;;;-145.41;100.00;58600.66;5033817;28;20087;-79
2023/06/16 10:32:06;;;;;;;5.50;3.85;;;;;;;-145.41;100.00;58600.66;5033615;28;20033;-79
2023/06/16 10:34:34;;;;;;;7.53;4.20;;;;;;;-145.41;100.00;58600.66;5015959;28;20030;-79
2023/06/16 10:37:00;;;;;;;5.20;3.50;;;;;;;-145.41;100.00;58600.66;4994633;28;1019565;-79
2023/06/16 10:39:26;;;;;;;7.95;4.22;;;;;;;-145.41;100.00;58600.66;5034170;28;20037;-79
2023/06/16 10:41:57;;;;;;;6.15;3.80;;;;;;;-145.41;100.00;58600.66;5035897;28;20068;-80
2023/06/16 10:44:32;;;;;;;5.88;3.75;;;;;;;-145.41;100.00;58600.66;5034320;28;20034;-80
2023/06/16 10:47:13;;;;;;;7.38;3.90;;;;;;;-145.41;100.00;58600.66;5031606;28;20040;-79
2023/06/16 10:49:46;;;;;;;5.65;3.58;;;;;;;-145.41;100.00;58600.66;5033383;28;20031;-79
2023/06/16 10:52:16;;;;;;;7.80;4.82;;;;;;;-145.41;100.00;58600.66;5034799;28;20040;-79
2023/06/16 10:54:43;;;;;;;5.82;4.35;;;;;;;-145.41;100.00;58600.66;5035770;28;20504;-79
2023/06/16 10:57:10;;;;;;;5.90;4.03;;;;;;;-145.41;100.00;58600.66;5037697;28;20044;-79
2023/06/16 10:59:55;;;;;;;5.40;4.38;;;;;;;-145.41;100.00;58600.66;5036328;28;20038;-79
2023/06/16 11:02:23;;;;;;;6.60;5.00;;;;;;;-145.41;100.00;58600.66;5016250;28;20037;-79
2023/06/16 11:05:08;;;;;;;7.20;5.20;;;;;;;-145.41;100.00;58600.66;5031016;28;20073;-79
2023/06/16 11:08:01;;;;;;;5.78;4.63;;;;;;;-145.41;100.00;58600.66;5032436;28;20037;-79
2023/06/16 11:10:27;;;;;;;9.30;5.00;;;;;;;-145.41;100.00;58600.66;5011914;28;20030;-80